This is the latest recevied weather packets stored in our database for station/object OM8AGG-15. If no packets are shown the sender has not sent any weather packets the latest 10 day(s).
| Time | Temp. | Humidity | Pressure | Rain* | Wind** | Luminosity | Snow |
|---|---|---|---|---|---|---|---|
| 1777698559 | 11.11° C | 52% | 1024.2 hPa | - | - | - | - |
| 1777697655 | 10.56° C | 53% | 1024.1 hPa | - | - | - | - |
| 1777696758 | 10° C | 54% | 1024 hPa | - | - | - | - |
| 1777695858 | 8.89° C | 59% | 1024 hPa | - | - | - | - |
| 1777694954 | 8.89° C | 58% | 1023.9 hPa | - | - | - | - |
| 1777694055 | 8.33° C | 62% | 1023.8 hPa | - | - | - | - |
| 1777693154 | 8.33° C | 62% | 1023.7 hPa | - | - | - | - |
| 1777692259 | 7.78° C | 66% | 1023.6 hPa | - | - | - | - |
| 1777691358 | 6.11° C | 70% | 1023.6 hPa | - | - | - | - |
| 1777690454 | 6.11° C | 70% | 1023.6 hPa | - | - | - | - |
| 1777689558 | 7.78° C | 66% | 1023.4 hPa | - | - | - | - |
| 1777688657 | 7.22° C | 66% | 1023.6 hPa | - | - | - | - |
| 1777687753 | 7.22° C | 68% | 1023.7 hPa | - | - | - | - |
| 1777686857 | 6.67° C | 70% | 1023.6 hPa | - | - | - | - |
| 1777685953 | 6.67° C | 69% | 1023.7 hPa | - | - | - | - |
| 1777685057 | 7.22° C | 69% | 1023.7 hPa | - | - | - | - |
| 1777684154 | 7.22° C | 67% | 1023.7 hPa | - | - | - | - |
| 1777683256 | 7.78° C | 65% | 1023.7 hPa | - | - | - | - |
| 1777682356 | 7.78° C | 64% | 1023.7 hPa | - | - | - | - |
| 1777681453 | 8.33° C | 61% | 1023.7 hPa | - | - | - | - |
| 1777680559 | 7.78° C | 62% | 1023.9 hPa | - | - | - | - |
| 1777679656 | 7.78° C | 62% | 1023.8 hPa | - | - | - | - |
| 1777678755 | 8.33° C | 61% | 1023.9 hPa | - | - | - | - |
| 1777677852 | 7.78° C | 64% | 1023.9 hPa | - | - | - | - |
| 1777676952 | 7.78° C | 63% | 1024 hPa | - | - | - | - |
* Rain since midnight (hover to see other rain measurements)
** Current wind speed in m/s (hover to see current wind gust speed)